createdAt,value
2018-06-16T00:00:12.231Z,37.6
2018-06-16T00:01:02.596Z,37.6
2018-06-16T00:01:52.065Z,37.6
2018-06-16T00:02:42.670Z,37.6
2018-06-16T00:03:31.909Z,37.6
2018-06-16T00:04:22.809Z,37.6
2018-06-16T00:05:12.326Z,37.6
2018-06-16T00:06:02.416Z,37.6
2018-06-16T00:06:53.013Z,37.6
2018-06-16T00:07:43.597Z,37.6
2018-06-16T00:08:33.337Z,37.6
2018-06-16T00:09:23.420Z,37.6
2018-06-16T00:10:13.841Z,37.6
2018-06-16T00:11:03.799Z,37.6
2018-06-16T00:11:53.335Z,37.6
2018-06-16T00:12:43.925Z,37.5
2018-06-16T00:13:33.443Z,37.6
2018-06-16T00:14:24.114Z,37.5
2018-06-16T00:15:13.955Z,37.5
2018-06-16T00:16:03.375Z,37.5
2018-06-16T00:16:54.272Z,37.5
2018-06-16T00:17:44.083Z,37.5
2018-06-16T00:18:34.410Z,37.5
2018-06-16T00:19:23.632Z,37.5
2018-06-16T00:20:13.683Z,37.5
2018-06-16T00:21:04.567Z,37.5
2018-06-16T00:21:54.665Z,37.4
2018-06-16T00:22:44.430Z,37.4
2018-06-16T00:23:34.770Z,37.4
2018-06-16T00:24:24.290Z,37.4
2018-06-16T00:25:14.914Z,37.4
2018-06-16T00:26:04.714Z,37.4
2018-06-16T00:26:54.457Z,37.4
2018-06-16T00:27:44.552Z,37.4
2018-06-16T00:28:34.310Z,37.4
2018-06-16T00:29:24.393Z,37.4
2018-06-16T00:30:14.731Z,37.4
2018-06-16T00:31:05.371Z,37.4
2018-06-16T00:31:55.148Z,37.4
2018-06-16T00:32:45.212Z,37.4
2018-06-16T00:33:34.700Z,37.4
2018-06-16T00:34:25.339Z,37.4
2018-06-16T00:35:15.403Z,37.4
2018-06-16T00:36:04.895Z,37.4
2018-06-16T00:36:55.501Z,37.4
2018-06-16T00:37:45.868Z,37.4
2018-06-16T00:38:35.663Z,37.4
2018-06-16T00:39:25.997Z,37.4
2018-06-16T00:40:15.773Z,37.4
2018-06-16T00:41:05.560Z,37.4
2018-06-16T00:41:55.689Z,37.4
2018-06-16T00:42:45.958Z,37.4
2018-06-16T00:43:35.783Z,37.4
2018-06-16T00:44:25.507Z,37.3
2018-06-16T00:45:16.446Z,37.3
2018-06-16T00:46:05.983Z,37.3
2018-06-16T00:46:55.414Z,37.3
2018-06-16T00:47:46.321Z,37.3
2018-06-16T00:48:36.414Z,37.3
2018-06-16T00:49:25.905Z,37.3
2018-06-16T00:50:15.708Z,37.3
2018-06-16T00:51:06.899Z,37.3
2018-06-16T00:51:56.374Z,37.3
2018-06-16T00:52:46.711Z,37.3
2018-06-16T00:53:36.797Z,37.3
2018-06-16T00:54:27.125Z,37.3
2018-06-16T00:55:16.962Z,37.3
2018-06-16T00:56:07.004Z,37.3
2018-06-16T00:56:57.063Z,37.3
2018-06-16T00:57:46.536Z,37.3
2018-06-16T00:58:36.621Z,37.3
2018-06-16T00:59:26.948Z,37.3
2018-06-16T01:00:16.532Z,37.3
2018-06-16T01:01:07.176Z,37.3
2018-06-16T01:01:56.665Z,37.3
2018-06-16T01:02:46.793Z,37.2
2018-06-16T01:03:37.377Z,37.2
2018-06-16T01:04:26.574Z,37.2
2018-06-16T01:05:17.489Z,37.2
2018-06-16T01:06:07.273Z,37.2
2018-06-16T01:06:56.776Z,37.2
2018-06-16T01:07:48.163Z,37.2
2018-06-16T01:08:37.736Z,37.2
2018-06-16T01:09:28.315Z,37.2
2018-06-16T01:10:18.370Z,37.2
2018-06-16T01:11:07.859Z,37.2
2018-06-16T01:11:58.167Z,37.1
2018-06-16T01:12:48.246Z,37.1
2018-06-16T01:13:38.292Z,37.1
2018-06-16T01:14:28.395Z,37.1
2018-06-16T01:15:18.735Z,37.1
2018-06-16T01:16:08.487Z,37.1
2018-06-16T01:16:58.018Z,37.1
2018-06-16T01:17:48.313Z,37.1
2018-06-16T01:18:38.432Z,37.1
2018-06-16T01:19:28.728Z,37.1
2018-06-16T01:20:19.151Z,37.1
2018-06-16T01:21:08.597Z,37.1
2018-06-16T01:21:58.694Z,37.1
2018-06-16T01:22:49.314Z,37.1
2018-06-16T01:23:39.089Z,37.1
2018-06-16T01:24:29.139Z,37.1
2018-06-16T01:25:19.519Z,37.1
2018-06-16T01:26:09.003Z,37.1
2018-06-16T01:26:59.309Z,37.1
2018-06-16T01:27:49.393Z,37.1
2018-06-16T01:28:39.200Z,37.1
2018-06-16T01:29:28.730Z,37.1
2018-06-16T01:30:19.893Z,37.1
2018-06-16T01:31:09.087Z,37.1
2018-06-16T01:31:59.190Z,37.1
2018-06-16T01:32:49.804Z,37
2018-06-16T01:33:38.990Z,37.1
2018-06-16T01:34:29.915Z,37
2018-06-16T01:35:19.957Z,37
2018-06-16T01:36:10.057Z,37
2018-06-16T01:37:00.131Z,37
2018-06-16T01:37:50.461Z,37
2018-06-16T01:38:40.250Z,37
2018-06-16T01:39:30.326Z,37
2018-06-16T01:40:20.646Z,37
2018-06-16T01:41:10.397Z,37
2018-06-16T01:42:00.490Z,36.9
2018-06-16T01:42:50.530Z,37
2018-06-16T01:43:40.311Z,36.9
2018-06-16T01:44:30.092Z,36.9
2018-06-16T01:45:20.744Z,36.9
2018-06-16T01:46:10.796Z,37
2018-06-16T01:47:00.886Z,36.9
2018-06-16T01:47:51.224Z,36.9
2018-06-16T01:48:41.278Z,36.9
2018-06-16T01:49:30.776Z,36.9
2018-06-16T01:50:21.179Z,36.9
2018-06-16T01:51:10.607Z,36.9
2018-06-16T01:52:00.980Z,36.9
2018-06-16T01:52:51.020Z,36.9
2018-06-16T01:53:40.806Z,36.9
2018-06-16T01:54:31.427Z,36.9
2018-06-16T01:55:21.513Z,36.9
2018-06-16T01:56:11.551Z,36.9
2018-06-16T01:57:01.332Z,36.9
2018-06-16T01:57:51.918Z,36.9
2018-06-16T01:58:41.241Z,36.9
2018-06-16T01:59:32.075Z,36.9
2018-06-16T02:00:21.898Z,36.9
2018-06-16T02:01:11.661Z,37
2018-06-16T02:02:02.283Z,37.1
2018-06-16T02:02:52.069Z,37.3
2018-06-16T02:03:41.850Z,37.4
2018-06-16T02:04:32.235Z,37.5
2018-06-16T02:05:22.250Z,37.7
2018-06-16T02:06:12.341Z,37.8
2018-06-16T02:07:02.480Z,37.9
2018-06-16T02:07:52.752Z,38
2018-06-16T02:08:41.988Z,38.1
2018-06-16T02:09:32.585Z,38.2
2018-06-16T02:10:22.356Z,38.3
2018-06-16T02:11:12.471Z,38.4
2018-06-16T02:12:03.070Z,38.4
2018-06-16T02:12:52.820Z,38.6
2018-06-16T02:13:43.173Z,38.7
2018-06-16T02:14:32.959Z,38.8
2018-06-16T02:15:23.014Z,38.9
2018-06-16T02:16:12.833Z,39.1
2018-06-16T02:17:03.123Z,39.1
2018-06-16T02:17:53.285Z,39.3
2018-06-16T02:18:43.554Z,39.4
2018-06-16T02:19:33.365Z,39.5
2018-06-16T02:20:23.714Z,39.6
2018-06-16T02:21:13.758Z,39.8
2018-06-16T02:22:03.514Z,39.8
2018-06-16T02:22:53.321Z,39.9
2018-06-16T02:23:43.654Z,40.1
2018-06-16T02:24:33.979Z,40.2
2018-06-16T02:25:24.063Z,40.3
2018-06-16T02:26:14.136Z,40.4
2018-06-16T02:27:04.223Z,40.5
2018-06-16T02:27:53.689Z,40.6
2018-06-16T02:28:44.056Z,40.7
2018-06-16T02:29:33.618Z,40.8
2018-06-16T02:30:24.468Z,40.9
2018-06-16T02:31:14.033Z,40.9
2018-06-16T02:32:04.310Z,41.1
2018-06-16T02:32:54.641Z,41.3
2018-06-16T02:33:44.193Z,41.4
2018-06-16T02:34:34.797Z,41.5
2018-06-16T02:35:23.745Z,41.6
2018-06-16T02:36:14.933Z,41.8
2018-06-16T02:37:04.711Z,41.8
2018-06-16T02:37:54.233Z,41.9
2018-06-16T02:38:44.298Z,42.1
2018-06-16T02:39:35.220Z,42.2
2018-06-16T02:40:24.955Z,42.3
2018-06-16T02:41:14.745Z,42.5
2018-06-16T02:42:04.825Z,42.6
2018-06-16T02:42:54.871Z,42.8
2018-06-16T02:43:44.919Z,42.9
2018-06-16T02:44:34.980Z,43
2018-06-16T02:45:25.661Z,43.1
2018-06-16T02:46:15.706Z,43.2
2018-06-16T02:47:05.773Z,43.3
2018-06-16T02:47:55.809Z,43.4
2018-06-16T02:48:45.370Z,43.5
2018-06-16T02:49:35.383Z,43.6
2018-06-16T02:50:27.153Z,43.7
2018-06-16T02:51:16.049Z,43.8
2018-06-16T02:52:05.905Z,43.9
2018-06-16T02:52:55.975Z,44.1
2018-06-16T02:53:46.313Z,44.2
2018-06-16T02:54:36.348Z,44.3
2018-06-16T02:55:25.831Z,44.4
2018-06-16T02:56:15.878Z,44.6
2018-06-16T02:57:06.259Z,44.7
2018-06-16T02:57:56.576Z,44.8
2018-06-16T02:58:46.488Z,44.9
2018-06-16T02:59:36.115Z,45
2018-06-16T03:00:26.210Z,45.1
2018-06-16T03:01:16.282Z,45.2
2018-06-16T03:02:06.627Z,45.3
2018-06-16T03:02:55.841Z,45.4
2018-06-16T03:03:47.009Z,45.6
2018-06-16T03:04:36.836Z,45.7
2018-06-16T03:05:26.846Z,45.9
2018-06-16T03:06:17.007Z,46
2018-06-16T03:07:06.728Z,46.1
2018-06-16T03:07:57.317Z,46.3
2018-06-16T03:08:47.408Z,46.4
2018-06-16T03:09:37.191Z,46.6
2018-06-16T03:10:27.485Z,46.7
2018-06-16T03:11:17.309Z,46.8
2018-06-16T03:12:07.102Z,46.9
2018-06-16T03:12:56.902Z,47.1
2018-06-16T03:13:47.262Z,47.1
2018-06-16T03:14:37.829Z,47.2
2018-06-16T03:15:27.974Z,47.3
2018-06-16T03:16:18.039Z,47.3
2018-06-16T03:17:07.227Z,47.3
2018-06-16T03:17:57.815Z,47.3
2018-06-16T03:18:46.769Z,47.4
2018-06-16T03:19:37.403Z,47.4
2018-06-16T03:20:28.001Z,47.4
2018-06-16T03:21:18.337Z,47.4
2018-06-16T03:22:08.414Z,47.4
2018-06-16T03:22:58.202Z,47.4
2018-06-16T03:23:48.515Z,47.5
2018-06-16T03:24:38.329Z,47.5
2018-06-16T03:25:28.190Z,47.5
2018-06-16T03:26:18.475Z,47.5
2018-06-16T03:27:08.239Z,47.6
2018-06-16T03:27:58.586Z,47.7
2018-06-16T03:28:48.927Z,47.8
2018-06-16T03:29:38.451Z,47.8
2018-06-16T03:30:28.329Z,47.8
2018-06-16T03:31:19.116Z,47.8
2018-06-16T03:32:08.671Z,47.9
2018-06-16T03:32:58.687Z,47.9
2018-06-16T03:33:49.051Z,47.9
2018-06-16T03:34:38.807Z,47.9
2018-06-16T03:35:28.620Z,47.9
2018-06-16T03:36:19.909Z,47.9
2018-06-16T03:37:09.581Z,48
2018-06-16T03:37:58.257Z,48
2018-06-16T03:38:49.670Z,48
2018-06-16T03:39:39.177Z,48
2018-06-16T03:40:29.811Z,48.1
2018-06-16T03:41:19.401Z,48.1
2018-06-16T03:42:09.915Z,48.1
2018-06-16T03:42:59.714Z,48.1
2018-06-16T03:43:49.500Z,48.1
2018-06-16T03:44:38.974Z,48.1
2018-06-16T03:45:30.187Z,48.1
2018-06-16T03:46:20.317Z,48.1
2018-06-16T03:47:10.337Z,48.1
2018-06-16T03:47:59.844Z,48.1
2018-06-16T03:48:49.579Z,48.1
2018-06-16T03:49:39.952Z,48.1
2018-06-16T03:50:30.570Z,48.1
2018-06-16T03:51:20.669Z,48.1
2018-06-16T03:52:10.740Z,48.1
2018-06-16T03:53:00.759Z,48.1
2018-06-16T03:53:50.548Z,48.1
2018-06-16T03:54:40.657Z,48.1
2018-06-16T03:55:30.942Z,48.1
2018-06-16T03:56:21.057Z,48.1
2018-06-16T03:57:10.271Z,48.1
2018-06-16T03:58:00.862Z,48.1
2018-06-16T03:58:51.219Z,48.1
2018-06-16T03:59:41.249Z,48.1
2018-06-16T04:00:31.024Z,48.1
2018-06-16T04:01:20.844Z,48.1
2018-06-16T04:02:10.637Z,48.1
2018-06-16T04:03:01.287Z,48.1
2018-06-16T04:03:51.331Z,48.1
2018-06-16T04:04:41.368Z,48.1
2018-06-16T04:05:31.719Z,48.1
2018-06-16T04:06:21.509Z,48.1
2018-06-16T04:07:10.996Z,48.1
2018-06-16T04:08:01.361Z,48.1
2018-06-16T04:08:51.166Z,48.1
2018-06-16T04:09:41.478Z,48.1
2018-06-16T04:10:31.532Z,48.1
2018-06-16T04:11:21.603Z,48.1
2018-06-16T04:12:12.266Z,48.1
2018-06-16T04:13:02.115Z,48.1
2018-06-16T04:13:52.422Z,48.1
2018-06-16T04:14:42.426Z,48.1
2018-06-16T04:15:32.458Z,48.1
2018-06-16T04:16:22.298Z,48
2018-06-16T04:17:12.627Z,48
2018-06-16T04:18:02.383Z,48
2018-06-16T04:18:52.733Z,48
2018-06-16T04:19:42.508Z,48
2018-06-16T04:20:32.877Z,48
2018-06-16T04:21:22.656Z,48
2018-06-16T04:22:12.708Z,48
2018-06-16T04:23:01.988Z,48
2018-06-16T04:23:52.849Z,48
2018-06-16T04:24:43.169Z,48
2018-06-16T04:25:33.262Z,48
2018-06-16T04:26:23.329Z,47.9
2018-06-16T04:27:12.797Z,47.9
2018-06-16T04:28:02.594Z,47.9
2018-06-16T04:28:53.215Z,47.9
2018-06-16T04:29:42.996Z,47.9
2018-06-16T04:30:33.642Z,47.9
2018-06-16T04:31:23.164Z,47.9
2018-06-16T04:32:13.804Z,47.9
2018-06-16T04:33:03.263Z,47.9
2018-06-16T04:33:53.332Z,47.9
2018-06-16T04:34:43.625Z,47.9
2018-06-16T04:35:33.256Z,47.9
2018-06-16T04:36:23.869Z,47.9
2018-06-16T04:37:13.398Z,47.9
2018-06-16T04:38:03.069Z,47.9
2018-06-16T04:38:54.272Z,47.9
2018-06-16T04:39:44.389Z,47.9
2018-06-16T04:40:33.664Z,47.9
2018-06-16T04:41:22.892Z,47.9
2018-06-16T04:42:14.277Z,47.9
2018-06-16T04:43:04.628Z,47.9
2018-06-16T04:43:54.386Z,47.9
2018-06-16T04:44:44.192Z,47.8
2018-06-16T04:45:35.764Z,47.9
2018-06-16T04:46:24.841Z,47.8
2018-06-16T04:47:14.368Z,47.8
2018-06-16T04:48:04.195Z,47.8
2018-06-16T04:48:54.496Z,47.8
2018-06-16T04:49:45.111Z,47.8
2018-06-16T04:50:35.160Z,47.8
2018-06-16T04:51:24.942Z,47.8
2018-06-16T04:52:15.010Z,47.8
2018-06-16T04:53:05.054Z,47.8
2018-06-16T04:53:54.297Z,47.8
2018-06-16T04:54:45.020Z,47.8
2018-06-16T04:55:34.996Z,47.8
2018-06-16T04:56:25.370Z,47.8
2018-06-16T04:57:15.481Z,47.7
2018-06-16T04:58:05.525Z,47.7
2018-06-16T04:58:54.969Z,47.7
2018-06-16T04:59:45.282Z,47.7
2018-06-16T05:00:35.667Z,47.7
2018-06-16T05:01:25.168Z,47.6
2018-06-16T05:02:15.503Z,47.6
2018-06-16T05:03:05.858Z,47.6
2018-06-16T05:03:55.925Z,47.6
2018-06-16T05:04:46.067Z,47.6
2018-06-16T05:05:35.532Z,47.6
2018-06-16T05:06:25.791Z,47.6
2018-06-16T05:07:15.890Z,47.6
2018-06-16T05:08:06.594Z,47.6
2018-06-16T05:08:56.021Z,47.6
2018-06-16T05:09:46.087Z,47.5
2018-06-16T05:10:36.437Z,47.5
2018-06-16T05:11:26.770Z,47.5
2018-06-16T05:12:16.306Z,47.5
2018-06-16T05:13:06.644Z,47.5
2018-06-16T05:13:56.679Z,47.4
2018-06-16T05:14:46.709Z,47.5
2018-06-16T05:15:36.824Z,47.4
2018-06-16T05:16:26.579Z,47.4
2018-06-16T05:17:16.922Z,47.4
2018-06-16T05:18:06.822Z,47.4
2018-06-16T05:18:57.050Z,47.4
2018-06-16T05:19:47.084Z,47.4
2018-06-16T05:20:36.873Z,47.4
2018-06-16T05:21:26.663Z,47.4
2018-06-16T05:22:17.055Z,47.4
2018-06-16T05:23:07.395Z,47.4
2018-06-16T05:23:57.246Z,47.4
2018-06-16T05:24:47.773Z,47.3
2018-06-16T05:25:37.756Z,47.3
2018-06-16T05:26:27.649Z,47.3
2018-06-16T05:27:16.890Z,47.3
2018-06-16T05:28:07.995Z,47.3
2018-06-16T05:28:56.984Z,47.3
2018-06-16T05:29:47.934Z,47.3
2018-06-16T05:30:37.698Z,47.2
2018-06-16T05:31:27.977Z,47.2
2018-06-16T05:32:18.377Z,47.2
2018-06-16T05:33:08.422Z,47.1
2018-06-16T05:33:57.919Z,47.1
2018-06-16T05:34:47.130Z,47.1
2018-06-16T05:35:37.503Z,47.1
2018-06-16T05:36:28.671Z,47.1
2018-06-16T05:37:18.510Z,47.1
2018-06-16T05:38:08.782Z,47.1
2018-06-16T05:38:58.575Z,47
2018-06-16T05:39:48.438Z,47
2018-06-16T05:40:39.083Z,47
2018-06-16T05:41:28.522Z,47
2018-06-16T05:42:19.151Z,46.9
2018-06-16T05:43:09.171Z,46.9
2018-06-16T05:43:58.673Z,46.9
2018-06-16T05:44:49.269Z,46.9
2018-06-16T05:45:38.537Z,46.9
2018-06-16T05:46:29.192Z,46.9
2018-06-16T05:47:19.492Z,46.9
2018-06-16T05:48:09.037Z,46.9
2018-06-16T05:48:59.373Z,46.9
2018-06-16T05:49:48.855Z,46.9
2018-06-16T05:50:39.766Z,46.9
2018-06-16T05:51:29.247Z,46.9
2018-06-16T05:52:19.870Z,46.9
2018-06-16T05:53:09.157Z,46.9
2018-06-16T05:54:00.525Z,46.9
2018-06-16T05:54:48.984Z,46.9
2018-06-16T05:55:39.622Z,46.9
2018-06-16T05:56:29.125Z,46.9
2018-06-16T05:57:19.561Z,46.8
2018-06-16T05:58:10.369Z,46.8
2018-06-16T05:59:00.148Z,46.8
2018-06-16T05:59:50.171Z,46.7
2018-06-16T06:00:40.886Z,46.6
2018-06-16T06:01:30.642Z,46.6
2018-06-16T06:02:20.647Z,46.6
2018-06-16T06:03:10.770Z,46.6
2018-06-16T06:04:00.304Z,46.6
2018-06-16T06:04:50.304Z,46.6
2018-06-16T06:05:40.395Z,46.5
2018-06-16T06:06:31.020Z,46.4
2018-06-16T06:07:20.742Z,46.4
2018-06-16T06:08:10.802Z,46.4
2018-06-16T06:09:01.174Z,46.3
2018-06-16T06:09:50.655Z,46.3
2018-06-16T06:10:41.035Z,46.3
2018-06-16T06:11:31.440Z,46.3
2018-06-16T06:12:21.152Z,46.2
2018-06-16T06:13:11.532Z,46.1
2018-06-16T06:14:01.268Z,46.1
2018-06-16T06:14:51.675Z,46.1
2018-06-16T06:15:42.015Z,46.1
2018-06-16T06:16:31.166Z,46
2018-06-16T06:17:21.828Z,46
2018-06-16T06:18:10.770Z,46
2018-06-16T06:19:01.382Z,45.9
2018-06-16T06:19:51.731Z,45.9
2018-06-16T06:20:41.798Z,45.9
2018-06-16T06:21:31.557Z,45.9
2018-06-16T06:22:21.932Z,45.9
2018-06-16T06:23:12.012Z,45.8
2018-06-16T06:24:01.734Z,45.8
2018-06-16T06:24:52.352Z,45.8
2018-06-16T06:25:42.474Z,45.8
2018-06-16T06:26:32.286Z,45.8
2018-06-16T06:27:22.284Z,45.8
2018-06-16T06:28:12.369Z,45.7
2018-06-16T06:29:02.404Z,45.7
2018-06-16T06:29:51.679Z,45.6
2018-06-16T06:30:41.658Z,45.6
2018-06-16T06:31:32.620Z,45.6
2018-06-16T06:32:22.907Z,45.6
2018-06-16T06:33:11.953Z,45.6
2018-06-16T06:34:02.818Z,45.6
2018-06-16T06:34:52.267Z,45.5
2018-06-16T06:35:42.331Z,45.5
2018-06-16T06:36:33.293Z,45.4
2018-06-16T06:37:23.080Z,45.4
2018-06-16T06:38:13.090Z,45.4
2018-06-16T06:39:03.205Z,45.4
2018-06-16T06:39:53.217Z,45.4
2018-06-16T06:40:42.707Z,45.4
2018-06-16T06:41:33.351Z,45.3
2018-06-16T06:42:23.420Z,45.3
2018-06-16T06:43:13.484Z,45.3
2018-06-16T06:44:03.598Z,45.2
2018-06-16T06:44:53.568Z,45.1
2018-06-16T06:45:43.698Z,45
2018-06-16T06:46:34.000Z,44.9
2018-06-16T06:47:23.521Z,44.9
2018-06-16T06:48:13.842Z,44.8
2018-06-16T06:49:04.226Z,44.8
2018-06-16T06:49:53.166Z,44.8
2018-06-16T06:50:43.752Z,44.7
2018-06-16T06:51:33.861Z,44.6
2018-06-16T06:52:24.529Z,44.6
2018-06-16T06:53:14.244Z,44.6
2018-06-16T06:54:04.611Z,44.6
2018-06-16T06:54:54.087Z,44.6
2018-06-16T06:55:44.463Z,44.5
2018-06-16T06:56:34.286Z,44.5
2018-06-16T06:57:24.624Z,44.5
2018-06-16T06:58:13.778Z,44.4
2018-06-16T06:59:04.688Z,44.4
2018-06-16T06:59:54.783Z,44.4
2018-06-16T07:00:44.802Z,44.4
2018-06-16T07:01:34.086Z,44.4
2018-06-16T07:02:24.943Z,44.4
2018-06-16T07:03:15.275Z,44.3
2018-06-16T07:04:05.097Z,44.3
2018-06-16T07:04:55.408Z,44.3
2018-06-16T07:05:44.218Z,44.3
2018-06-16T07:06:34.988Z,44.3
2018-06-16T07:07:24.790Z,44.2
2018-06-16T07:08:15.411Z,44.2
2018-06-16T07:09:05.453Z,44.1
2018-06-16T07:09:55.777Z,44.1
2018-06-16T07:10:46.217Z,44.1
2018-06-16T07:11:35.903Z,44
2018-06-16T07:12:25.428Z,43.9
2018-06-16T07:13:14.908Z,43.7
2018-06-16T07:14:05.276Z,48.1
2018-06-16T07:14:56.180Z,51.1
2018-06-16T07:15:45.689Z,51.6
2018-06-16T07:16:36.321Z,55.1
2018-06-16T07:17:26.114Z,55.5
2018-06-16T07:18:15.882Z,54.3
2018-06-16T07:19:06.512Z,53.1
2018-06-16T07:19:56.280Z,52.2
2018-06-16T07:20:46.043Z,51.5
2018-06-16T07:21:36.740Z,50.9
2018-06-16T07:22:26.764Z,50.4
2018-06-16T07:23:16.237Z,49.9
2018-06-16T07:24:06.872Z,49.4
2018-06-16T07:24:56.924Z,49.1
2018-06-16T07:25:46.764Z,48.7
2018-06-16T07:26:36.062Z,48.3
2018-06-16T07:27:27.121Z,48
2018-06-16T07:28:17.191Z,47.7
2018-06-16T07:29:07.328Z,52
2018-06-16T07:29:57.347Z,52.8
2018-06-16T07:30:46.612Z,54.8
2018-06-16T07:31:37.230Z,55.7
2018-06-16T07:32:27.239Z,55.7
2018-06-16T07:33:17.333Z,55.5
2018-06-16T07:34:07.464Z,55.4
2018-06-16T07:34:57.476Z,55.4
2018-06-16T07:35:47.536Z,55.6
2018-06-16T07:36:37.279Z,55.9
2018-06-16T07:37:27.675Z,56.1
2018-06-16T07:38:16.929Z,56.2
2018-06-16T07:39:07.794Z,56.3
2018-06-16T07:39:57.366Z,56.1
2018-06-16T07:40:47.685Z,56.2
2018-06-16T07:41:38.054Z,56.3
2018-06-16T07:42:28.301Z,56.4
2018-06-16T07:43:17.892Z,56.6
2018-06-16T07:44:08.149Z,56.7
2018-06-16T07:44:58.178Z,56.8
2018-06-16T07:45:48.275Z,56.9
2018-06-16T07:46:37.575Z,56.9
2018-06-16T07:47:28.366Z,57.1
2018-06-16T07:48:18.748Z,57.2
2018-06-16T07:49:08.576Z,57.3
2018-06-16T07:49:58.343Z,57.3
2018-06-16T07:50:48.943Z,57.4
2018-06-16T07:51:38.738Z,57.5
2018-06-16T07:52:29.037Z,57.6
2018-06-16T07:54:08.640Z,57.9
2018-06-16T07:54:58.959Z,58
2018-06-16T07:55:48.482Z,58.1
2018-06-16T07:56:38.962Z,58.1
2018-06-16T07:57:29.423Z,58.1
2018-06-16T07:58:19.485Z,58.1
2018-06-16T07:59:08.775Z,58.2
2018-06-16T07:59:59.061Z,58.3
2018-06-16T08:00:49.712Z,58.4
2018-06-16T08:01:38.980Z,58.5
2018-06-16T08:03:19.359Z,58.6
2018-06-16T08:04:09.669Z,58.7
2018-06-16T08:04:59.200Z,58.8
2018-06-16T08:05:49.833Z,58.9
2018-06-16T08:06:40.124Z,59
2018-06-16T08:07:29.744Z,59.1
2018-06-16T08:08:20.007Z,59.2
2018-06-16T08:09:10.044Z,59.3
2018-06-16T08:09:59.895Z,59.4
2018-06-16T08:10:50.468Z,59.4
2018-06-16T08:11:40.290Z,59.6
2018-06-16T08:12:30.127Z,59.6
2018-06-16T08:13:20.406Z,59.7
2018-06-16T08:14:10.220Z,59.8
2018-06-16T08:15:00.812Z,59.9
2018-06-16T08:15:49.500Z,60
2018-06-16T08:16:40.673Z,60.1
2018-06-16T08:17:31.005Z,60.2
2018-06-16T08:18:21.111Z,60.3
2018-06-16T08:19:10.602Z,60.3
2018-06-16T08:20:00.648Z,60.4
2018-06-16T08:20:51.284Z,60.4
2018-06-16T08:21:41.366Z,60.6
2018-06-16T08:22:30.813Z,60.7
2018-06-16T08:23:21.152Z,60.7
2018-06-16T08:24:11.580Z,60.7
2018-06-16T08:25:01.610Z,60.5
2018-06-16T08:25:51.683Z,60.3
2018-06-16T08:26:41.694Z,60.1
2018-06-16T08:27:31.262Z,60.3
2018-06-16T08:28:21.832Z,60.6
2018-06-16T08:29:11.923Z,60.9
2018-06-16T08:30:01.742Z,61
2018-06-16T08:30:51.795Z,61.1
2018-06-16T08:31:41.592Z,61.1
2018-06-16T08:32:31.047Z,60.9
2018-06-16T08:33:21.957Z,60.8
2018-06-16T08:34:12.047Z,60.9
2018-06-16T08:35:02.394Z,61.1
2018-06-16T08:35:51.823Z,61.2
2018-06-16T08:36:42.492Z,61.4
2018-06-16T08:37:32.267Z,61.4
2018-06-16T08:38:22.680Z,61.5
2018-06-16T08:39:12.374Z,61.6
2018-06-16T08:40:01.957Z,61.6
2018-06-16T08:40:52.297Z,61.7
2018-06-16T08:41:42.839Z,61.8
2018-06-16T08:42:32.700Z,61.9
2018-06-16T08:43:23.734Z,62
2018-06-16T08:44:12.572Z,62.1
2018-06-16T08:45:02.646Z,62.1
2018-06-16T08:45:52.891Z,62.1
2018-06-16T08:46:43.306Z,62.2
2018-06-16T08:47:33.317Z,62.2
2018-06-16T08:48:22.841Z,62.3
2018-06-16T08:49:13.434Z,62.4
2018-06-16T08:50:03.237Z,62.4
2018-06-16T08:50:53.054Z,62.4
2018-06-16T08:51:43.645Z,62.2
2018-06-16T08:52:33.678Z,61.9
2018-06-16T08:53:23.511Z,61.8
2018-06-16T08:54:13.561Z,61.8
2018-06-16T08:55:03.924Z,62.1
2018-06-16T08:55:53.711Z,62.4
2018-06-16T08:56:44.070Z,62.6
2018-06-16T08:57:33.512Z,62.7
2018-06-16T08:58:23.902Z,62.8
2018-06-16T08:59:14.243Z,62.8
2018-06-16T09:00:04.367Z,62.9
2018-06-16T09:00:54.348Z,62.9
2018-06-16T09:01:44.522Z,63
2018-06-16T09:02:33.653Z,63
2018-06-16T09:03:24.271Z,63
2018-06-16T09:04:14.664Z,63.1
2018-06-16T09:05:04.157Z,63.3
2018-06-16T09:05:54.795Z,63.3
2018-06-16T09:06:44.856Z,63.4
2018-06-16T09:07:34.566Z,63.3
2018-06-16T09:08:24.354Z,63.1
2018-06-16T09:09:14.711Z,62.9
2018-06-16T09:10:04.244Z,62.8
2018-06-16T09:10:54.842Z,62.7
2018-06-16T09:11:44.947Z,62.6
2018-06-16T09:12:35.216Z,62.6
2018-06-16T09:13:25.338Z,62.7
2018-06-16T09:14:14.818Z,62.6
2018-06-16T09:15:05.459Z,62.6
2018-06-16T09:15:54.427Z,62.5
2018-06-16T09:16:45.638Z,62.4
2018-06-16T09:17:35.624Z,62.4
2018-06-16T09:18:25.167Z,62.4
2018-06-16T09:19:15.255Z,62.4
2018-06-16T09:20:05.648Z,62.7
2018-06-16T09:20:55.616Z,63
2018-06-16T09:21:45.984Z,63.1
2018-06-16T09:22:35.972Z,62.9
2018-06-16T09:23:25.653Z,62.8
2018-06-16T09:24:16.136Z,62.8
2018-06-16T09:25:06.220Z,63
2018-06-16T09:25:55.180Z,63.1
2018-06-16T09:26:46.095Z,62.9
2018-06-16T09:27:35.843Z,62.9
2018-06-16T09:28:25.643Z,62.9
2018-06-16T09:29:15.973Z,62.7
2018-06-16T09:30:05.795Z,62.5
2018-06-16T09:30:55.912Z,62.3
2018-06-16T09:31:47.177Z,62.1
2018-06-16T09:32:36.799Z,62.1
2018-06-16T09:33:26.011Z,62
2018-06-16T09:34:16.901Z,61.9
2018-06-16T09:35:06.425Z,61.8
2018-06-16T09:35:57.062Z,61.8
2018-06-16T09:36:46.855Z,62.1
2018-06-16T09:37:36.921Z,62.2
2018-06-16T09:38:26.675Z,62.1
2018-06-16T09:39:17.029Z,61.9
2018-06-16T09:40:07.101Z,61.8
2018-06-16T09:40:57.474Z,61.8
2018-06-16T09:41:46.955Z,61.7
2018-06-16T09:42:37.777Z,61.9
2018-06-16T09:43:26.773Z,62.4
2018-06-16T09:44:17.671Z,62.8
2018-06-16T09:45:07.831Z,63.1
2018-06-16T09:45:57.550Z,63.2
2018-06-16T09:46:47.606Z,63.3
2018-06-16T09:47:37.951Z,63.3
2018-06-16T09:48:27.573Z,63.4
2018-06-16T09:49:17.808Z,63.6
2018-06-16T09:50:08.146Z,63.8
2018-06-16T09:50:58.207Z,63.9
2018-06-16T09:51:48.319Z,63.9
2018-06-16T09:52:38.054Z,64
2018-06-16T09:53:28.166Z,64.1
2018-06-16T09:54:18.180Z,64.2
2018-06-16T09:55:08.555Z,64.2
2018-06-16T09:55:58.347Z,63.9
2018-06-16T09:56:48.638Z,63.7
2018-06-16T09:57:38.148Z,63.6
2018-06-16T09:58:28.496Z,63.9
2018-06-16T09:59:18.847Z,64.3
2018-06-16T10:00:08.433Z,64.4
2018-06-16T10:00:58.176Z,64.4
2018-06-16T10:01:48.498Z,64.4
2018-06-16T10:02:39.116Z,64.5
2018-06-16T10:03:28.984Z,64.7
2018-06-16T10:04:18.706Z,64.8
2018-06-16T10:05:09.327Z,64.8
2018-06-16T10:05:58.263Z,64.5
2018-06-16T10:06:49.172Z,64.3
2018-06-16T10:07:39.525Z,64.1
2018-06-16T10:08:29.298Z,63.8
2018-06-16T10:09:19.156Z,63.7
